Time;durP1;ratioP1;P1;durP2;ratioP2;P2;SDS_P1;SDS_P2;PMS_P1;PMS_P2;Temp;Humidity;BMP_temperature;BMP_pressure;BME280_temperature;BME280_humidity;BME280_pressure;Samples;Min_cycle;Max_cycle;Signal;HPM_P1;HPM_P2
2021/08/30 00:00:33;;;;;;;7.70;6.00;;;16.10;99.90;;;;;;5092161;28;20396;-83
2021/08/30 00:02:59;;;;;;;7.70;5.50;;;15.90;99.90;;;;;;5093054;28;20403;-83
2021/08/30 00:05:24;;;;;;;7.63;6.03;;;16.00;99.90;;;;;;5093054;28;20780;-83
2021/08/30 00:07:50;;;;;;;8.03;6.20;;;16.00;99.90;;;;;;5092815;28;20372;-83
2021/08/30 00:10:16;;;;;;;8.98;5.78;;;16.00;99.90;;;;;;5074200;28;20376;-84
2021/08/30 00:12:43;;;;;;;7.40;5.83;;;16.00;99.90;;;;;;5074654;28;20425;-82
2021/08/30 00:15:10;;;;;;;9.15;6.72;;;16.00;99.90;;;;;;5074568;28;20870;-82
2021/08/30 00:17:36;;;;;;;9.43;5.95;;;15.90;99.90;;;;;;5074343;28;20802;-83
2021/08/30 00:20:03;;;;;;;9.10;6.20;;;15.90;99.90;;;;;;5091873;28;20439;-81
2021/08/30 00:22:28;;;;;;;8.95;6.18;;;15.80;99.90;;;;;;5092533;28;20376;-83
2021/08/30 00:24:54;;;;;;;7.47;5.93;;;15.80;99.90;;;;;;5092481;28;20384;-84
2021/08/30 00:27:19;;;;;;;7.57;5.80;;;15.80;99.90;;;;;;5074335;28;20993;-85
2021/08/30 00:29:45;;;;;;;7.20;5.67;;;15.80;99.90;;;;;;5092116;28;20429;-83
2021/08/30 00:32:10;;;;;;;9.53;6.13;;;15.70;99.90;;;;;;5073779;28;20388;-84
2021/08/30 00:34:36;;;;;;;8.70;5.50;;;15.70;99.90;;;;;;5092062;28;20379;-80
2021/08/30 00:37:02;;;;;;;7.97;5.47;;;15.60;99.90;;;;;;5092056;28;20369;-83
2021/08/30 00:39:29;;;;;;;11.45;6.10;;;15.60;99.90;;;;;;5073395;28;20439;-83
2021/08/30 00:41:56;;;;;;;7.15;5.22;;;15.60;99.90;;;;;;5092038;28;20376;-83
2021/08/30 00:44:23;;;;;;;6.88;5.07;;;15.50;99.90;;;;;;5092556;28;20464;-84
2021/08/30 00:46:49;;;;;;;7.32;5.18;;;15.50;99.90;;;;;;5092011;28;20383;-82
2021/08/30 00:49:15;;;;;;;8.95;5.95;;;15.60;99.90;;;;;;5091550;28;20722;-81
2021/08/30 00:51:41;;;;;;;7.38;5.90;;;15.50;99.90;;;;;;5090766;28;20714;-85
2021/08/30 00:54:08;;;;;;;7.90;5.40;;;15.50;99.90;;;;;;5092115;28;20376;-82
2021/08/30 00:56:34;;;;;;;6.22;4.80;;;15.50;99.90;;;;;;5073310;28;20397;-82
2021/08/30 00:58:59;;;;;;;7.75;5.40;;;15.50;99.90;;;;;;5091292;28;20745;-84
2021/08/30 01:01:25;;;;;;;8.10;5.20;;;15.50;99.90;;;;;;5073344;28;20388;-83
2021/08/30 01:03:52;;;;;;;6.65;4.90;;;15.50;99.90;;;;;;5091788;28;20380;-80
2021/08/30 01:06:23;;;;;;;8.30;5.78;;;15.50;99.90;;;;;;5073624;28;21016;-83
2021/08/30 01:09:09;;;;;;;8.20;5.78;;;15.50;99.90;;;;;;5091109;28;20453;-82
2021/08/30 01:11:42;;;;;;;6.32;5.03;;;15.50;99.90;;;;;;5091453;28;20896;-80
2021/08/30 01:14:13;;;;;;;8.10;5.70;;;15.50;99.90;;;;;;5073029;28;20388;-82
2021/08/30 01:16:40;;;;;;;8.18;5.40;;;15.50;99.90;;;;;;5091448;28;20412;-82
2021/08/30 01:19:11;;;;;;;8.38;5.10;;;15.50;99.90;;;;;;5072405;28;20368;-83
2021/08/30 01:21:42;;;;;;;7.40;5.40;;;15.60;99.90;;;;;;5091358;28;20406;-83
2021/08/30 01:24:17;;;;;;;7.75;5.55;;;15.60;99.90;;;;;;5091060;28;20365;-82
2021/08/30 01:26:48;;;;;;;9.07;5.50;;;15.50;99.90;;;;;;5072298;28;20389;-83
2021/08/30 01:29:23;;;;;;;11.20;6.00;;;15.50;99.90;;;;;;5072668;28;20384;-85
2021/08/30 01:32:01;;;;;;;7.13;5.40;;;15.50;99.90;;;;;;5091394;28;20373;-84
2021/08/30 01:34:29;;;;;;;9.10;5.78;;;15.50;99.90;;;;;;5090771;28;20996;-83
2021/08/30 01:36:55;;;;;;;9.38;6.10;;;15.50;99.90;;;;;;5090919;28;20429;-85
2021/08/30 01:39:29;;;;;;;9.85;7.03;;;15.50;99.90;;;;;;5072811;28;20381;-83
2021/08/30 01:41:56;;;;;;;8.35;6.55;;;15.40;99.90;;;;;;5091045;28;20373;-81
2021/08/30 01:44:23;;;;;;;10.03;6.67;;;15.40;99.90;;;;;;5073019;28;20370;-80
2021/08/30 01:46:49;;;;;;;10.07;6.15;;;15.50;99.90;;;;;;5091373;28;20372;-81
2021/08/30 01:49:15;;;;;;;9.52;6.65;;;15.40;99.90;;;;;;5090532;28;20376;-82
2021/08/30 01:51:41;;;;;;;9.57;6.32;;;15.40;99.90;;;;;;5072582;28;20380;-81
2021/08/30 01:54:07;;;;;;;10.98;7.32;;;15.40;99.90;;;;;;5090752;28;20373;-82
2021/08/30 01:56:34;;;;;;;12.95;8.10;;;15.40;99.90;;;;;;5090852;28;20380;-81
2021/08/30 02:01:46;;;;;;;10.60;6.97;;;15.30;99.90;;;;;;5090375;28;20537;-84
2021/08/30 02:04:12;;;;;;;9.65;6.90;;;15.40;99.90;;;;;;5090502;28;20944;-82
2021/08/30 02:06:38;;;;;;;9.25;7.05;;;15.30;99.90;;;;;;5072194;28;20368;-82
2021/08/30 02:09:04;;;;;;;11.83;7.60;;;15.40;99.90;;;;;;5089880;28;20373;-82
2021/08/30 02:11:35;;;;;;;11.27;7.40;;;15.30;99.90;;;;;;5090657;28;20398;-81
2021/08/30 02:14:03;;;;;;;10.43;7.22;;;15.30;99.90;;;;;;5071820;28;20395;-82
2021/08/30 02:16:29;;;;;;;10.13;7.10;;;15.30;99.90;;;;;;5071580;28;20389;-82
2021/08/30 02:19:05;;;;;;;10.80;7.05;;;15.40;99.90;;;;;;5089958;28;20383;-82
2021/08/30 02:21:43;;;;;;;8.10;6.38;;;15.40;99.90;;;;;;5089838;28;20878;-80
2021/08/30 02:24:37;;;;;;;8.57;6.60;;;15.30;99.90;;;;;;5071538;28;20469;-80
2021/08/30 02:27:08;;;;;;;9.85;6.85;;;15.40;99.90;;;;;;5089989;28;20435;-83
2021/08/30 02:29:43;;;;;;;10.40;7.50;;;15.40;99.90;;;;;;5089614;28;20376;-79
2021/08/30 02:32:09;;;;;;;10.38;6.82;;;15.40;99.90;;;;;;5090343;28;20460;-82
2021/08/30 02:34:37;;;;;;;8.68;6.60;;;15.40;99.90;;;;;;5090171;28;20451;-84
2021/08/30 02:37:04;;;;;;;9.07;7.25;;;15.40;99.90;;;;;;5071247;28;20433;-81
2021/08/30 02:39:31;;;;;;;11.18;6.93;;;15.50;99.90;;;;;;5089371;28;20420;-84
2021/08/30 02:41:59;;;;;;;8.18;6.90;;;15.50;99.90;;;;;;5089885;28;20457;-83
2021/08/30 02:44:25;;;;;;;9.93;7.10;;;15.50;99.90;;;;;;5071284;28;20440;-85
2021/08/30 02:46:51;;;;;;;11.05;7.10;;;15.40;99.90;;;;;;5089541;28;20361;-82
2021/08/30 02:49:16;;;;;;;9.63;7.20;;;15.40;99.90;;;;;;5089300;28;20453;-84
2021/08/30 02:51:44;;;;;;;9.50;6.73;;;15.40;99.90;;;;;;5089707;28;20372;-82
2021/08/30 02:54:10;;;;;;;9.30;7.05;;;15.40;99.90;;;;;;5089198;28;20376;-81
2021/08/30 02:56:38;;;;;;;8.93;6.70;;;15.50;99.90;;;;;;5071084;28;20715;-82
2021/08/30 02:59:04;;;;;;;11.98;7.50;;;15.50;99.90;;;;;;5089091;28;20467;-84
2021/08/30 03:01:30;;;;;;;8.53;7.03;;;15.50;99.90;;;;;;5089429;28;20545;-82
2021/08/30 03:03:56;;;;;;;10.35;7.40;;;15.50;99.90;;;;;;5090458;28;20392;-77
2021/08/30 03:06:23;;;;;;;8.57;7.03;;;15.50;99.90;;;;;;5090955;28;20915;-80
2021/08/30 03:08:49;;;;;;;9.18;7.25;;;15.50;99.90;;;;;;5070500;28;20460;-82
2021/08/30 03:11:16;;;;;;;9.20;7.17;;;15.50;99.90;;;;;;5088760;28;20442;-81
2021/08/30 03:13:43;;;;;;;10.30;7.30;;;15.50;99.90;;;;;;5089024;28;20457;-84
2021/08/30 03:16:09;;;;;;;7.88;6.65;;;15.40;99.90;;;;;;5071026;28;20439;-83
2021/08/30 03:18:38;;;;;;;12.03;7.40;;;15.40;99.90;;;;;;5088697;28;20946;-82
2021/08/30 03:21:03;;;;;;;7.65;6.47;;;15.30;99.90;;;;;;5088879;28;20877;-80
2021/08/30 03:23:31;;;;;;;7.53;6.70;;;15.40;99.90;;;;;;5088971;28;20381;-81
2021/08/30 03:25:58;;;;;;;8.90;6.53;;;15.40;99.90;;;;;;5089320;28;20455;-84
2021/08/30 03:28:25;;;;;;;10.45;7.28;;;15.40;99.90;;;;;;5070255;28;20369;-81
2021/08/30 03:30:52;;;;;;;7.18;6.38;;;15.50;99.90;;;;;;5089004;28;20379;-83
2021/08/30 03:33:19;;;;;;;8.25;6.50;;;15.50;99.90;;;;;;5088875;28;20373;-84
2021/08/30 03:35:47;;;;;;;7.30;6.60;;;15.50;99.90;;;;;;5088809;28;20398;-82
2021/08/30 03:38:13;;;;;;;9.90;6.97;;;15.50;99.90;;;;;;5088671;28;20380;-83
2021/08/30 03:40:40;;;;;;;9.70;7.18;;;15.50;99.90;;;;;;5070425;28;20403;-82
2021/08/30 03:43:06;;;;;;;11.27;7.05;;;15.50;99.90;;;;;;5088997;28;20407;-84
2021/08/30 03:45:32;;;;;;;8.07;6.45;;;15.50;99.90;;;;;;5070754;28;20379;-85
2021/08/30 03:47:59;;;;;;;6.50;5.80;;;15.50;99.90;;;;;;5088826;28;20415;-81
2021/08/30 03:50:25;;;;;;;8.13;6.50;;;15.60;99.90;;;;;;5070232;28;20373;-79
2021/08/30 03:52:52;;;;;;;8.30;6.40;;;15.60;99.90;;;;;;5088845;28;20372;-81
2021/08/30 03:55:18;;;;;;;7.47;6.40;;;15.60;99.90;;;;;;5088882;28;20458;-83
2021/08/30 03:57:44;;;;;;;7.53;6.70;;;15.70;99.90;;;;;;5089065;28;20396;-84
2021/08/30 04:00:11;;;;;;;10.30;7.00;;;15.80;99.90;;;;;;5088611;28;20405;-83
2021/08/30 04:02:40;;;;;;;6.70;6.07;;;15.80;99.90;;;;;;5070819;28;20376;-82
2021/08/30 04:05:07;;;;;;;7.55;6.18;;;15.80;99.90;;;;;;5070778;28;20420;-84
2021/08/30 04:07:34;;;;;;;9.63;6.83;;;15.80;99.90;;;;;;5088948;28;20368;-83
2021/08/30 04:10:01;;;;;;;12.40;7.47;;;15.80;99.90;;;;;;5088343;28;20380;-85
2021/08/30 04:12:27;;;;;;;6.90;5.88;;;15.80;99.90;;;;;;5088930;28;20946;-83
2021/08/30 04:14:53;;;;;;;7.65;6.28;;;15.80;99.90;;;;;;5088903;28;20369;-82
2021/08/30 04:17:18;;;;;;;7.50;5.83;;;15.80;99.90;;;;;;5070857;28;20505;-84
2021/08/30 04:19:44;;;;;;;7.37;5.83;;;15.80;99.90;;;;;;5088620;28;20407;-82
2021/08/30 04:22:10;;;;;;;7.55;5.88;;;15.80;99.90;;;;;;5088955;28;20373;-82
2021/08/30 04:24:35;;;;;;;8.73;6.77;;;15.90;99.90;;;;;;5088690;28;20937;-83
2021/08/30 04:27:01;;;;;;;8.50;6.23;;;15.90;99.90;;;;;;5092543;28;20360;-80
2021/08/30 04:29:28;;;;;;;9.80;6.60;;;15.80;99.90;;;;;;5074150;28;20418;-82
2021/08/30 04:31:54;;;;;;;6.78;5.97;;;15.90;99.90;;;;;;5074123;28;20388;-84
2021/08/30 04:34:24;;;;;;;6.80;6.20;;;15.90;99.90;;;;;;5074279;28;20796;-84
2021/08/30 04:36:50;;;;;;;6.63;6.03;;;15.90;99.90;;;;;;5092331;28;20377;-84
2021/08/30 04:39:16;;;;;;;6.20;5.60;;;15.90;99.90;;;;;;5091994;28;20376;-80
2021/08/30 04:41:45;;;;;;;8.05;6.40;;;16.00;99.90;;;;;;5091929;28;20742;-84
2021/08/30 04:44:12;;;;;;;7.55;6.40;;;16.00;99.90;;;;;;5071883;28;20392;-83
2021/08/30 04:46:37;;;;;;;8.73;6.40;;;16.00;99.90;;;;;;5073050;28;20503;-83
2021/08/30 04:49:03;;;;;;;8.60;6.37;;;16.00;99.90;;;;;;5076880;28;20364;-83
2021/08/30 04:51:29;;;;;;;8.13;6.63;;;16.00;99.90;;;;;;5091477;28;20372;-82
2021/08/30 04:53:55;;;;;;;11.43;7.43;;;16.00;99.90;;;;;;5091316;28;20412;-82
2021/08/30 04:56:20;;;;;;;7.22;6.53;;;16.00;99.90;;;;;;5091146;28;20440;-84
2021/08/30 04:58:46;;;;;;;8.47;7.13;;;16.00;99.90;;;;;;5072369;28;20384;-82
2021/08/30 05:01:11;;;;;;;9.48;7.07;;;16.00;99.90;;;;;;5069918;28;20480;-82
2021/08/30 05:03:37;;;;;;;9.30;6.70;;;16.10;99.90;;;;;;5090298;28;20384;-83
2021/08/30 05:06:03;;;;;;;7.35;6.53;;;16.10;99.90;;;;;;5090797;28;20372;-81
2021/08/30 05:08:29;;;;;;;9.45;7.38;;;16.20;99.90;;;;;;5079973;28;20883;-79
2021/08/30 05:10:54;;;;;;;9.03;6.93;;;16.10;99.90;;;;;;5081340;28;20386;-81
2021/08/30 05:13:22;;;;;;;9.93;7.32;;;16.10;99.90;;;;;;5079518;28;20502;-83
2021/08/30 05:15:47;;;;;;;8.23;6.75;;;16.10;99.90;;;;;;5090326;28;20383;-81
2021/08/30 05:18:13;;;;;;;8.18;7.38;;;16.20;99.90;;;;;;5090652;28;20381;-83
2021/08/30 05:20:39;;;;;;;8.43;7.53;;;16.20;99.90;;;;;;5089693;28;20411;-81
2021/08/30 05:23:04;;;;;;;8.65;7.82;;;16.30;99.90;;;;;;5080649;28;20377;-83
2021/08/30 05:25:30;;;;;;;12.57;9.70;;;16.40;99.90;;;;;;5079640;28;20370;-81
2021/08/30 05:27:55;;;;;;;12.57;9.38;;;16.40;99.90;;;;;;5060339;28;20382;-81
2021/08/30 05:30:21;;;;;;;11.00;9.90;;;16.30;99.90;;;;;;5089488;28;20368;-82
2021/08/30 05:32:47;;;;;;;14.35;10.20;;;16.50;99.90;;;;;;5089199;28;20372;-80
2021/08/30 05:35:12;;;;;;;11.90;10.40;;;16.40;99.90;;;;;;5079026;28;20476;-80
2021/08/30 05:37:38;;;;;;;11.90;10.40;;;16.40;99.90;;;;;;5088771;28;20885;-82
2021/08/30 05:40:05;;;;;;;13.60;10.90;;;16.30;99.90;;;;;;5089591;28;20428;-81
2021/08/30 05:42:30;;;;;;;13.00;10.43;;;16.30;99.90;;;;;;5072388;28;20901;-82
2021/08/30 05:44:56;;;;;;;11.50;10.10;;;16.30;99.90;;;;;;5090355;28;20380;-80
2021/08/30 05:47:22;;;;;;;11.85;10.45;;;16.30;99.90;;;;;;5072462;28;20377;-82
2021/08/30 05:49:48;;;;;;;12.60;10.05;;;16.30;99.90;;;;;;5071557;28;20750;-80
2021/08/30 05:52:14;;;;;;;11.73;10.45;;;16.30;99.90;;;;;;5071949;28;20529;-82
2021/08/30 05:54:40;;;;;;;12.10;10.80;;;16.30;99.90;;;;;;5090613;28;20421;-82
2021/08/30 05:57:05;;;;;;;11.20;9.85;;;16.30;99.90;;;;;;5071886;28;20455;-81
2021/08/30 05:59:31;;;;;;;11.97;10.07;;;16.40;99.90;;;;;;5089447;28;20396;-81
2021/08/30 06:01:56;;;;;;;12.25;10.45;;;16.40;99.90;;;;;;5090507;28;20376;-83
2021/08/30 06:04:22;;;;;;;13.20;10.27;;;16.40;99.90;;;;;;5090379;28;20427;-83
2021/08/30 06:06:47;;;;;;;11.50;10.30;;;16.40;99.90;;;;;;5090404;28;20791;-80
2021/08/30 06:09:13;;;;;;;11.80;10.30;;;16.30;99.90;;;;;;5072072;28;20391;-84
2021/08/30 06:11:39;;;;;;;12.75;11.45;;;16.50;99.90;;;;;;5090594;28;20468;-81
2021/08/30 06:14:04;;;;;;;14.17;10.33;;;16.40;99.90;;;;;;5089576;28;20780;-81
2021/08/30 06:16:30;;;;;;;11.30;10.10;;;16.50;99.90;;;;;;5072055;28;20368;-82
2021/08/30 06:18:55;;;;;;;11.70;10.50;;;16.50;99.90;;;;;;5089397;28;20360;-81
2021/08/30 06:21:21;;;;;;;11.90;10.50;;;16.40;99.90;;;;;;5089238;28;20498;-84
2021/08/30 06:23:47;;;;;;;12.05;10.75;;;16.40;99.90;;;;;;5090420;28;20380;-81
2021/08/30 06:26:12;;;;;;;12.47;11.17;;;16.40;99.90;;;;;;5090086;28;20379;-83
2021/08/30 06:28:38;;;;;;;11.93;10.73;;;16.20;99.90;;;;;;5089127;28;20509;-82
2021/08/30 06:31:03;;;;;;;12.43;11.10;;;16.20;99.90;;;;;;5089964;28;20415;-83
2021/08/30 06:33:29;;;;;;;12.60;11.30;;;16.20;99.90;;;;;;5071945;28;20382;-83
2021/08/30 06:35:54;;;;;;;12.17;10.97;;;16.10;99.90;;;;;;5071386;28;20384;-84
2021/08/30 06:38:21;;;;;;;14.88;12.02;;;16.30;99.90;;;;;;5089260;28;20402;-82
2021/08/30 06:40:46;;;;;;;12.25;11.00;;;16.20;99.90;;;;;;5089600;28;20388;-82
2021/08/30 06:43:12;;;;;;;13.33;10.43;;;16.20;99.90;;;;;;5069429;28;20520;-82
2021/08/30 06:45:38;;;;;;;14.05;11.57;;;16.30;99.90;;;;;;5077848;28;20374;-83
2021/08/30 06:48:04;;;;;;;12.68;11.35;;;16.30;99.90;;;;;;5068962;28;20378;-81
2021/08/30 06:50:29;;;;;;;13.30;11.53;;;16.30;99.90;;;;;;5086515;28;20364;-84
2021/08/30 06:52:55;;;;;;;14.73;11.48;;;16.40;99.90;;;;;;5089344;28;20895;-82
2021/08/30 06:55:21;;;;;;;12.20;10.90;;;16.50;99.90;;;;;;5089254;28;20369;-84
2021/08/30 06:57:47;;;;;;;12.47;10.23;;;16.50;99.90;;;;;;5089220;28;20861;-83
2021/08/30 07:00:16;;;;;;;13.70;11.43;;;16.60;99.90;;;;;;5070553;28;20495;-85
2021/08/30 07:02:42;;;;;;;12.43;11.05;;;16.60;99.90;;;;;;5089319;28;20372;-82
2021/08/30 07:05:08;;;;;;;12.10;10.90;;;16.70;99.90;;;;;;5089368;28;20467;-83
2021/08/30 07:07:33;;;;;;;13.48;12.05;;;16.70;99.90;;;;;;5089588;28;20368;-83
2021/08/30 07:09:59;;;;;;;12.23;10.97;;;16.60;99.90;;;;;;5084370;28;21206;-84
2021/08/30 07:12:25;;;;;;;12.20;10.93;;;16.70;99.90;;;;;;5088416;28;21274;-82
2021/08/30 07:14:51;;;;;;;14.05;10.75;;;16.60;99.90;;;;;;5085636;28;20420;-82
2021/08/30 07:17:16;;;;;;;14.02;11.25;;;16.80;99.90;;;;;;5088819;28;20454;-85
2021/08/30 07:19:42;;;;;;;12.87;11.30;;;16.60;99.90;;;;;;5087637;28;20750;-83
2021/08/30 07:22:08;;;;;;;12.23;11.02;;;16.60;99.90;;;;;;5088364;28;20381;-83
2021/08/30 07:24:33;;;;;;;14.00;10.53;;;16.70;99.90;;;;;;5088495;28;20829;-83
2021/08/30 07:27:03;;;;;;;12.05;10.85;;;16.70;99.90;;;;;;5088585;28;20876;-82
2021/08/30 07:29:30;;;;;;;11.32;9.90;;;16.80;99.90;;;;;;5069546;28;20372;-81
2021/08/30 07:31:56;;;;;;;12.35;10.80;;;16.90;99.90;;;;;;5070468;28;20376;-84
2021/08/30 07:34:21;;;;;;;12.38;10.60;;;17.00;99.90;;;;;;5088303;28;20715;-84
2021/08/30 07:36:47;;;;;;;11.40;10.20;;;16.90;99.90;;;;;;5088471;28;21133;-82
2021/08/30 07:39:12;;;;;;;11.43;10.15;;;16.90;99.90;;;;;;5087976;28;20376;-85
2021/08/30 07:41:38;;;;;;;10.90;9.67;;;16.80;99.90;;;;;;5088467;28;20426;-85
2021/08/30 07:44:04;;;;;;;10.60;9.52;;;16.70;99.90;;;;;;5088547;28;20368;-81
2021/08/30 07:46:30;;;;;;;10.70;9.70;;;16.60;99.90;;;;;;5088116;28;20364;-82
2021/08/30 07:48:55;;;;;;;11.00;9.97;;;16.60;99.90;;;;;;5088024;28;20380;-85
2021/08/30 07:51:21;;;;;;;10.90;9.80;;;16.60;99.90;;;;;;5088110;28;20739;-83
2021/08/30 07:53:47;;;;;;;10.47;9.37;;;16.80;99.90;;;;;;5088296;28;20456;-81
2021/08/30 07:56:13;;;;;;;10.23;9.20;;;16.70;99.90;;;;;;5088426;28;20708;-83
2021/08/30 07:58:38;;;;;;;10.55;8.80;;;16.70;99.90;;;;;;5088108;28;20734;-83
2021/08/30 08:01:04;;;;;;;9.55;8.55;;;16.80;99.90;;;;;;5071803;28;20400;-81
2021/08/30 08:03:30;;;;;;;9.55;8.23;;;16.90;99.90;;;;;;5091890;28;20372;-83
2021/08/30 08:05:56;;;;;;;8.67;7.77;;;17.20;99.90;;;;;;5091223;28;20426;-83
2021/08/30 08:08:21;;;;;;;8.85;8.05;;;17.30;99.90;;;;;;5091275;28;20407;-81
2021/08/30 08:10:47;;;;;;;8.53;7.70;;;17.40;99.90;;;;;;5090818;28;20380;-81
2021/08/30 08:13:13;;;;;;;8.98;8.07;;;17.60;99.90;;;;;;5090214;28;21073;-83
2021/08/30 08:15:39;;;;;;;9.50;8.53;;;17.60;99.90;;;;;;5092317;28;20419;-81
2021/08/30 08:18:05;;;;;;;8.45;7.65;;;17.50;99.90;;;;;;5092316;28;20389;-81
2021/08/30 08:20:32;;;;;;;7.97;7.18;;;17.50;99.90;;;;;;5091903;28;20800;-84
2021/08/30 08:23:02;;;;;;;8.35;7.55;;;17.50;99.90;;;;;;5091469;28;20410;-83
2021/08/30 08:25:28;;;;;;;7.50;6.70;;;17.50;99.90;;;;;;5091516;28;20459;-83
2021/08/30 08:27:54;;;;;;;7.70;6.97;;;17.70;99.90;;;;;;5091942;28;20945;-83
2021/08/30 08:30:20;;;;;;;6.60;6.00;;;17.90;99.90;;;;;;5092134;28;20414;-83
2021/08/30 08:32:47;;;;;;;6.82;6.00;;;18.00;99.90;;;;;;5091369;28;20380;-84
2021/08/30 08:35:13;;;;;;;6.63;6.13;;;18.20;99.90;;;;;;5092062;28;20380;-84
2021/08/30 08:37:40;;;;;;;5.53;5.03;;;18.40;99.90;;;;;;5091387;28;20387;-83
2021/08/30 08:40:07;;;;;;;6.00;5.50;;;18.30;99.90;;;;;;5091217;28;20763;-82
2021/08/30 08:42:37;;;;;;;6.65;6.05;;;18.20;99.90;;;;;;5090860;28;20384;-82
2021/08/30 08:45:06;;;;;;;5.93;5.43;;;18.10;99.90;;;;;;5091212;28;20438;-83
2021/08/30 08:47:31;;;;;;;7.18;5.72;;;18.10;99.90;;;;;;5072616;28;20388;-83
2021/08/30 08:49:57;;;;;;;5.80;5.30;;;18.10;99.90;;;;;;5091184;28;20839;-83
2021/08/30 08:52:23;;;;;;;6.40;5.05;;;18.20;99.90;;;;;;5090857;28;20381;-80
2021/08/30 08:54:49;;;;;;;6.00;5.40;;;18.10;99.90;;;;;;5090891;28;20862;-83
2021/08/30 08:57:15;;;;;;;5.60;5.10;;;18.30;99.90;;;;;;5091536;28;20384;-82
2021/08/30 09:00:02;;;;;;;5.07;4.57;;;18.20;99.90;;;;;;5072820;28;20393;-81
2021/08/30 09:02:30;;;;;;;6.82;5.03;;;18.10;99.90;;;;;;5066381;28;20445;-81
2021/08/30 09:04:57;;;;;;;5.65;5.10;;;18.10;99.90;;;;;;5090581;28;20787;-83
2021/08/30 09:07:34;;;;;;;5.72;5.22;;;18.00;99.90;;;;;;5091121;28;20373;-82
2021/08/30 09:10:00;;;;;;;5.50;5.00;;;18.10;99.90;;;;;;5090759;28;20380;-82
2021/08/30 09:12:26;;;;;;;6.10;5.60;;;18.20;99.90;;;;;;5089241;28;20460;-80
2021/08/30 09:14:52;;;;;;;6.70;5.97;;;18.00;99.90;;;;;;5091062;28;21126;-83
2021/08/30 09:17:18;;;;;;;6.50;5.90;;;17.90;99.90;;;;;;5090585;28;20865;-82
2021/08/30 09:19:43;;;;;;;6.57;5.95;;;17.90;99.90;;;;;;5090369;28;20384;-83
2021/08/30 09:22:10;;;;;;;5.87;5.30;;;18.00;99.90;;;;;;5088910;28;20424;-84
2021/08/30 09:24:37;;;;;;;5.97;5.38;;;18.10;99.90;;;;;;5087125;28;20399;-79
2021/08/30 09:27:06;;;;;;;5.60;5.10;;;18.20;99.90;;;;;;5067140;28;20407;-81
2021/08/30 09:29:36;;;;;;;5.17;4.63;;;18.30;99.90;;;;;;5087276;28;20395;-83
2021/08/30 09:32:06;;;;;;;5.50;5.00;;;18.20;99.90;;;;;;5068500;28;20842;-85
2021/08/30 09:34:36;;;;;;;5.70;5.15;;;18.20;99.90;;;;;;5087671;28;20375;-84
2021/08/30 09:37:04;;;;;;;5.18;4.68;;;18.30;99.90;;;;;;5070603;28;20380;-83
2021/08/30 09:39:31;;;;;;;5.40;4.88;;;18.50;99.90;;;;;;5089351;28;20865;-83
2021/08/30 09:41:57;;;;;;;5.80;5.30;;;18.50;99.90;;;;;;5071824;28;20384;-82
2021/08/30 09:44:28;;;;;;;6.40;5.80;;;18.50;99.90;;;;;;5089526;28;20376;-82
2021/08/30 09:46:55;;;;;;;5.15;4.75;;;18.60;99.90;;;;;;5089497;28;20862;-82
2021/08/30 09:49:27;;;;;;;6.20;5.60;;;18.70;99.90;;;;;;5071850;28;20409;-81
2021/08/30 09:51:53;;;;;;;5.75;5.07;;;18.60;99.90;;;;;;5071211;28;20380;-83
2021/08/30 09:54:20;;;;;;;6.05;5.45;;;18.60;99.90;;;;;;5089748;28;20376;-82
2021/08/30 09:56:47;;;;;;;5.65;5.13;;;18.60;99.90;;;;;;5070974;28;20387;-83
2021/08/30 09:59:14;;;;;;;5.72;5.20;;;18.50;99.90;;;;;;5088732;28;20874;-83
2021/08/30 10:01:41;;;;;;;5.70;5.20;;;18.30;99.90;;;;;;5069334;28;20412;-80
2021/08/30 10:04:09;;;;;;;6.60;5.20;;;18.40;99.90;;;;;;5087678;28;20373;-80
2021/08/30 10:06:37;;;;;;;6.45;5.85;;;18.20;99.90;;;;;;5088115;28;20388;-81
2021/08/30 10:09:10;;;;;;;5.72;5.10;;;18.10;99.90;;;;;;5070235;28;20399;-84
2021/08/30 10:11:37;;;;;;;6.10;5.50;;;18.20;99.90;;;;;;5089185;28;20529;-83
2021/08/30 10:14:05;;;;;;;5.32;4.82;;;18.20;99.90;;;;;;5089618;28;20371;-82
2021/08/30 10:16:32;;;;;;;5.88;5.22;;;18.20;99.90;;;;;;5070895;28;20389;-82
2021/08/30 10:18:58;;;;;;;5.60;5.10;;;18.20;99.90;;;;;;5088845;28;20387;-83
2021/08/30 10:21:26;;;;;;;6.43;5.00;;;18.20;99.90;;;;;;5089286;28;20873;-81
2021/08/30 10:23:51;;;;;;;5.80;5.20;;;18.40;99.90;;;;;;5088752;28;20384;-80
2021/08/30 10:26:17;;;;;;;5.07;4.57;;;18.40;99.90;;;;;;5089407;28;20464;-83
2021/08/30 10:28:46;;;;;;;4.95;4.50;;;18.20;99.90;;;;;;5070527;28;20376;-83
2021/08/30 10:31:25;;;;;;;4.78;4.38;;;18.10;99.90;;;;;;5082170;28;20432;-82
2021/08/30 10:33:55;;;;;;;4.55;4.18;;;18.20;99.90;;;;;;5086734;28;20396;-83
2021/08/30 10:36:24;;;;;;;4.72;4.32;;;18.20;99.90;;;;;;5084661;28;20541;-80
2021/08/30 10:39:03;;;;;;;4.93;4.53;;;18.40;99.90;;;;;;5083060;28;20381;-83
2021/08/30 10:41:42;;;;;;;4.47;3.45;;;18.50;99.90;;;;;;5066939;28;20916;-80
2021/08/30 10:44:14;;;;;;;4.30;3.95;;;18.50;99.90;;;;;;5086203;28;20379;-83
2021/08/30 10:46:47;;;;;;;4.07;3.78;;;18.50;99.90;;;;;;5085445;28;20593;-80
2021/08/30 10:49:20;;;;;;;4.55;4.15;;;18.40;99.90;;;;;;5067759;28;20468;-84
2021/08/30 10:51:48;;;;;;;4.60;4.05;;;18.50;99.90;;;;;;5084688;28;20862;-83
2021/08/30 10:54:18;;;;;;;4.03;3.63;;;18.40;99.90;;;;;;5083936;28;20889;-81
2021/08/30 10:56:56;;;;;;;4.22;3.83;;;18.50;99.90;;;;;;5085816;28;20822;-83
2021/08/30 10:59:24;;;;;;;4.32;3.92;;;18.30;99.90;;;;;;5066295;28;20830;-82
2021/08/30 11:01:59;;;;;;;4.80;4.13;;;18.10;99.90;;;;;;5085350;28;20828;-82
2021/08/30 11:04:32;;;;;;;4.07;3.78;;;18.10;99.90;;;;;;5085309;28;20384;-82
2021/08/30 11:06:58;;;;;;;4.00;3.70;;;18.10;99.90;;;;;;5082485;28;20372;-82
2021/08/30 11:09:24;;;;;;;4.03;3.72;;;18.20;99.90;;;;;;5086192;28;20365;-81
2021/08/30 11:11:51;;;;;;;4.15;3.80;;;18.20;99.90;;;;;;5086102;28;20369;-81
2021/08/30 11:14:18;;;;;;;4.47;4.07;;;18.20;99.90;;;;;;5084616;28;20368;-80
2021/08/30 11:16:43;;;;;;;4.68;4.28;;;18.10;99.90;;;;;;5084846;28;21151;-82
2021/08/30 11:19:13;;;;;;;4.60;4.20;;;18.20;99.90;;;;;;5066784;28;20393;-82
2021/08/30 11:21:47;;;;;;;4.40;4.00;;;18.20;99.90;;;;;;5085155;28;20389;-82
2021/08/30 11:24:30;;;;;;;4.30;3.90;;;18.30;99.90;;;;;;5085474;28;20380;-82
2021/08/30 11:27:00;;;;;;;5.13;3.83;;;18.50;99.90;;;;;;5085794;28;20383;-81
2021/08/30 11:29:25;;;;;;;4.30;3.90;;;18.60;99.90;;;;;;5085088;28;20395;-81
2021/08/30 11:31:52;;;;;;;4.20;3.28;;;18.70;99.90;;;;;;5067582;28;20841;-81
2021/08/30 11:34:25;;;;;;;4.28;3.53;;;18.80;99.90;;;;;;5067033;28;20492;-81
2021/08/30 11:36:52;;;;;;;3.90;3.60;;;19.00;99.90;;;;;;5085078;28;20467;-80
2021/08/30 11:39:19;;;;;;;4.22;3.50;;;19.00;99.90;;;;;;5085971;28;20365;-83
2021/08/30 11:41:51;;;;;;;4.80;3.90;;;19.10;99.90;;;;;;5067354;28;20403;-85
2021/08/30 11:44:17;;;;;;;3.78;3.47;;;19.10;99.90;;;;;;5085452;28;20376;-84
2021/08/30 11:46:54;;;;;;;4.70;4.30;;;19.10;99.90;;;;;;5085728;28;20383;-84
2021/08/30 11:49:21;;;;;;;4.13;3.72;;;19.10;99.90;;;;;;5085081;28;20395;-83
2021/08/30 11:51:47;;;;;;;4.27;3.87;;;19.10;99.90;;;;;;5067590;28;20380;-81
2021/08/30 11:54:19;;;;;;;4.20;3.78;;;19.20;99.90;;;;;;5085551;28;20496;-83
2021/08/30 11:56:56;;;;;;;3.95;3.30;;;19.50;99.90;;;;;;5067466;28;20451;-82
2021/08/30 11:59:37;;;;;;;4.10;3.70;;;19.70;99.90;;;;;;5079967;28;20782;-86
2021/08/30 12:02:04;;;;;;;3.70;3.40;;;19.80;99.90;;;;;;5057257;28;20381;-82
2021/08/30 12:04:32;;;;;;;4.00;3.40;;;19.80;99.90;;;;;;5075918;28;20388;-84
2021/08/30 12:07:04;;;;;;;3.80;3.50;;;20.00;99.90;;;;;;5066374;28;21024;-81
2021/08/30 12:09:48;;;;;;;4.53;3.20;;;20.30;99.90;;;;;;5075419;28;21015;-85
2021/08/30 12:12:16;;;;;;;4.80;3.43;;;20.30;99.90;;;;;;5069743;28;20378;-84
2021/08/30 12:15:02;;;;;;;5.15;3.70;;;20.10;99.90;;;;;;5073220;28;20422;-82
2021/08/30 12:17:50;;;;;;;3.50;3.20;;;20.00;99.90;;;;;;5055855;28;20413;-85
2021/08/30 12:20:22;;;;;;;5.50;3.80;;;19.80;99.90;;;;;;5054471;28;20575;-84
2021/08/30 12:22:54;;;;;;;4.30;3.90;;;19.60;99.90;;;;;;5070792;28;20908;-84
2021/08/30 12:25:32;;;;;;;4.35;3.50;;;19.50;99.90;;;;;;5053916;28;20396;-83
2021/08/30 12:27:59;;;;;;;5.00;3.53;;;19.60;99.90;;;;;;5073568;28;20378;-83
2021/08/30 12:30:39;;;;;;;3.65;3.35;;;19.60;99.90;;;;;;5074367;28;20399;-79
2021/08/30 12:33:17;;;;;;;4.90;4.00;;;19.70;99.90;;;;;;5047153;28;20380;-83
2021/08/30 12:35:53;;;;;;;4.97;3.90;;;19.70;99.90;;;;;;5048250;28;20880;-80
2021/08/30 12:38:25;;;;;;;4.50;3.70;;;19.70;99.90;;;;;;5048488;28;20388;-81
2021/08/30 12:40:54;;;;;;;5.00;3.72;;;19.60;99.90;;;;;;5052436;28;20481;-82
2021/08/30 12:43:20;;;;;;;5.55;3.30;;;19.50;99.90;;;;;;5050121;28;20928;-81
2021/08/30 12:45:46;;;;;;;3.83;3.28;;;19.50;99.90;;;;;;5068539;28;20378;-83
2021/08/30 12:48:13;;;;;;;4.60;3.60;;;19.70;99.90;;;;;;5073014;28;20889;-80